Red Wing, Minnesota
Current Conditions -  °F | °C
As of 10:11 AM on Saturday 20 Dec 2014 (Local Time) from KRGK Reporting Station
Haze Haze  
Wind Chill: 24°   Ceiling: 1100
Heat Index: 30°   Visibility: 5mi
Dew Point: 27°   Wind: 6mph
Humidity: 86%   Direction: 160°SSE
Pressure: 30.18"   Gusts: NA
Location:  44.57°N, 92.53°W
Report Text: KRGK 201611Z AUTO 16005KT 5SM HZ OVC011 M01/M03 A3018 RMK AO2
Loading
Personal Weather Stations






























Interactive Weather Map New forecast layout! Learn more

10-Day Weather Forecast

Advertisements
Track Severe Weather on mobile